Time;durP1;ratioP1;P1;durP2;ratioP2;P2;SDS_P1;SDS_P2;PMS_P1;PMS_P2;Temp;Humidity;BMP_temperature;BMP_pressure;BME280_temperature;BME280_humidity;BME280_pressure;Samples;Min_cycle;Max_cycle;Signal;HPM_P1;HPM_P2
2022/06/20 00:02:23;;;;;;;3.13;1.90;;;20.40;86.10;;;;;;5029703;28;20049;-74
2022/06/20 00:04:54;;;;;;;2.72;1.40;;;20.30;85.70;;;;;;5035749;28;20047;-74
2022/06/20 00:07:22;;;;;;;3.50;1.42;;;20.30;87.10;;;;;;5033233;28;20052;-74
2022/06/20 00:09:49;;;;;;;2.97;1.52;;;20.30;87.60;;;;;;5030315;28;20068;-74
2022/06/20 00:12:22;;;;;;;4.30;1.50;;;20.30;88.10;;;;;;5030715;28;20416;-74
2022/06/20 00:14:57;;;;;;;3.60;1.50;;;20.20;88.40;;;;;;5035716;28;20643;-74
2022/06/20 00:17:24;;;;;;;2.88;1.52;;;20.20;88.20;;;;;;5032901;28;20039;-74
2022/06/20 00:19:52;;;;;;;2.88;1.52;;;20.20;89.20;;;;;;5020633;28;20040;-74
2022/06/20 00:22:20;;;;;;;2.97;1.58;;;20.10;89.50;;;;;;5032543;28;22533;-74
2022/06/20 00:24:47;;;;;;;3.03;1.65;;;20.10;88.10;;;;;;5031370;28;20080;-74
2022/06/20 00:27:14;;;;;;;5.65;1.70;;;20.10;88.60;;;;;;5035531;28;20038;-74
2022/06/20 00:29:43;;;;;;;4.38;1.63;;;20.00;88.40;;;;;;5033464;28;21866;-74
2022/06/20 00:32:11;;;;;;;6.75;2.38;;;20.00;89.40;;;;;;5045233;28;20574;-74
2022/06/20 00:34:38;;;;;;;4.22;1.60;;;20.00;90.00;;;;;;5022896;28;20044;-74
2022/06/20 00:37:06;;;;;;;3.17;1.27;;;20.00;90.20;;;;;;5036067;28;20038;-74
2022/06/20 00:39:33;;;;;;;3.90;1.42;;;20.00;89.80;;;;;;5032096;28;20448;-74
2022/06/20 00:42:01;;;;;;;3.83;1.70;;;19.90;89.50;;;;;;5028532;28;20061;-74
2022/06/20 00:44:35;;;;;;;4.13;1.40;;;19.80;89.70;;;;;;5032280;28;20437;-75
2022/06/20 00:47:09;;;;;;;2.35;1.30;;;19.80;90.00;;;;;;5033462;28;20044;-74
2022/06/20 00:49:54;;;;;;;4.20;1.73;;;19.90;89.30;;;;;;5043369;28;20050;-74
2022/06/20 00:52:56;;;;;;;5.47;1.88;;;19.80;89.10;;;;;;5018872;28;20378;-74
2022/06/20 00:55:37;;;;;;;3.80;1.90;;;19.80;88.90;;;;;;5018107;28;20053;-74
2022/06/20 00:58:36;;;;;;;2.95;1.67;;;19.80;89.10;;;;;;5029678;28;20041;-74
2022/06/20 01:01:08;;;;;;;3.75;1.15;;;19.80;89.10;;;;;;5044472;28;20056;-74
2022/06/20 01:03:39;;;;;;;3.45;1.50;;;19.70;89.30;;;;;;5035359;28;20049;-74
2022/06/20 01:06:11;;;;;;;2.97;1.58;;;19.70;89.70;;;;;;5032759;28;20049;-74
2022/06/20 01:08:49;;;;;;;2.00;1.33;;;19.70;89.80;;;;;;5036749;28;20036;-74
2022/06/20 01:11:22;;;;;;;3.65;1.70;;;19.60;89.70;;;;;;5034599;28;20040;-74
2022/06/20 01:13:51;;;;;;;2.25;1.60;;;19.60;90.00;;;;;;5030086;28;20429;-74
2022/06/20 01:16:30;;;;;;;3.63;1.50;;;19.60;90.20;;;;;;5028530;28;20571;-74
2022/06/20 01:19:00;;;;;;;2.70;1.73;;;19.50;90.30;;;;;;5034605;28;20122;-75
2022/06/20 01:21:34;;;;;;;4.55;2.22;;;19.50;90.20;;;;;;5030448;28;20124;-75
2022/06/20 01:24:10;;;;;;;3.03;2.03;;;19.50;90.30;;;;;;5035522;28;20122;-75
2022/06/20 01:26:55;;;;;;;5.55;1.95;;;19.50;90.60;;;;;;5031303;28;20519;-75
2022/06/20 01:29:22;;;;;;;3.97;1.65;;;19.40;90.10;;;;;;5034364;28;20051;-74
2022/06/20 01:31:54;;;;;;;3.45;1.90;;;19.40;90.60;;;;;;5030144;28;20076;-74
2022/06/20 01:34:22;;;;;;;;;;;19.40;90.40;;;;;;5031869;28;20408;-74
2022/06/20 01:39:42;;;;;;;2.75;1.38;;;19.40;90.40;;;;;;5029139;28;20492;-75
2022/06/20 01:42:21;;;;;;;3.15;2.00;;;19.40;90.60;;;;;;5035792;28;20411;-74
2022/06/20 01:45:04;;;;;;;5.05;1.83;;;19.30;90.50;;;;;;5030837;28;20056;-74
2022/06/20 01:47:32;;;;;;;3.80;1.98;;;19.30;90.80;;;;;;5028980;28;20176;-74
2022/06/20 01:50:06;;;;;;;3.55;1.83;;;19.30;90.70;;;;;;5028771;28;20428;-74
2022/06/20 01:52:37;;;;;;;3.97;2.10;;;19.30;90.80;;;;;;5030399;28;20600;-74
2022/06/20 01:55:14;;;;;;;4.25;2.60;;;19.30;90.60;;;;;;5017446;28;20049;-74
2022/06/20 01:57:45;;;;;;;4.47;2.05;;;19.30;90.40;;;;;;5033629;28;20079;-74
2022/06/20 02:00:18;;;;;;;3.42;2.33;;;19.10;90.30;;;;;;5033221;28;20046;-74
2022/06/20 02:03:11;;;;;;;4.18;1.73;;;19.10;90.50;;;;;;5034374;28;20083;-74
2022/06/20 02:05:38;;;;;;;3.63;1.67;;;19.20;90.50;;;;;;5043833;28;20045;-74
2022/06/20 02:08:07;;;;;;;3.45;1.70;;;19.20;90.70;;;;;;5030991;28;20045;-74
2022/06/20 02:10:46;;;;;;;3.05;2.00;;;19.10;90.60;;;;;;5030171;28;20041;-74
2022/06/20 02:13:16;;;;;;;3.47;2.35;;;19.10;91.00;;;;;;5034567;28;20041;-74
2022/06/20 02:15:47;;;;;;;3.28;1.92;;;19.10;91.50;;;;;;5029434;28;20045;-74
2022/06/20 02:18:16;;;;;;;3.10;1.40;;;19.10;91.30;;;;;;5028353;28;20047;-74
2022/06/20 02:20:48;;;;;;;4.78;2.55;;;19.00;91.60;;;;;;5021301;28;20389;-74
2022/06/20 02:23:27;;;;;;;6.82;2.40;;;19.00;91.60;;;;;;5027805;28;20037;-74
2022/06/20 02:25:56;;;;;;;3.15;2.08;;;19.00;91.60;;;;;;5034649;28;20037;-74
2022/06/20 02:28:35;;;;;;;4.60;2.22;;;19.00;91.10;;;;;;5029038;28;20088;-74
2022/06/20 02:31:04;;;;;;;3.35;2.00;;;19.00;91.30;;;;;;5034495;28;20056;-74
2022/06/20 02:33:32;;;;;;;5.18;1.98;;;19.00;91.40;;;;;;5031031;28;20044;-74
2022/06/20 02:36:03;;;;;;;2.15;1.55;;;19.00;91.10;;;;;;5026316;28;20381;-74
2022/06/20 02:38:31;;;;;;;7.35;1.73;;;19.00;91.20;;;;;;5028886;28;20044;-74
2022/06/20 02:40:59;;;;;;;2.78;1.75;;;19.00;91.20;;;;;;5031471;28;20030;-74
2022/06/20 02:43:34;;;;;;;4.68;2.15;;;18.90;91.00;;;;;;5046892;28;20132;-74
2022/06/20 02:46:03;;;;;;;3.15;1.85;;;18.90;90.80;;;;;;5027261;28;20500;-74
2022/06/20 02:48:33;;;;;;;2.55;1.90;;;18.90;90.80;;;;;;5033028;28;20175;-74
2022/06/20 02:51:04;;;;;;;3.78;1.85;;;18.90;91.30;;;;;;5033358;28;20696;-74
2022/06/20 02:53:41;;;;;;;4.68;2.00;;;18.80;91.30;;;;;;5030615;28;20418;-74
2022/06/20 02:56:12;;;;;;;5.47;1.80;;;18.80;91.50;;;;;;5025476;28;20045;-74
2022/06/20 02:58:44;;;;;;;3.97;2.55;;;18.80;91.30;;;;;;5030730;28;20055;-74
2022/06/20 03:01:22;;;;;;;4.80;1.80;;;18.90;91.80;;;;;;5034902;28;20037;-74
2022/06/20 03:03:57;;;;;;;3.80;2.03;;;18.80;91.60;;;;;;5027556;28;20297;-74
2022/06/20 03:06:32;;;;;;;5.20;2.00;;;18.80;91.20;;;;;;5027288;28;20091;-74
2022/06/20 03:09:00;;;;;;;4.18;2.05;;;18.90;91.10;;;;;;5032642;28;20052;-74
2022/06/20 03:11:30;;;;;;;5.88;2.53;;;18.80;91.00;;;;;;5029372;28;20044;-74
2022/06/20 03:13:59;;;;;;;5.85;2.60;;;18.70;91.20;;;;;;5027439;28;20060;-74
2022/06/20 03:16:28;;;;;;;6.55;2.70;;;18.70;91.30;;;;;;5027284;28;20040;-75
2022/06/20 03:18:57;;;;;;;4.47;2.00;;;18.70;91.10;;;;;;5032757;28;20037;-74
2022/06/20 03:21:28;;;;;;;4.88;2.65;;;18.70;91.50;;;;;;5029203;28;20120;-74
2022/06/20 03:23:55;;;;;;;7.30;2.20;;;18.70;91.40;;;;;;5034357;28;20052;-74
2022/06/20 03:26:27;;;;;;;4.97;2.20;;;18.80;91.60;;;;;;5017381;28;20045;-74
2022/06/20 03:28:54;;;;;;;5.33;2.30;;;18.80;91.40;;;;;;5030596;28;20068;-74
2022/06/20 03:31:22;;;;;;;5.30;2.10;;;18.80;91.50;;;;;;5027717;28;20503;-74
2022/06/20 03:33:50;;;;;;;14.73;2.85;;;18.90;91.20;;;;;;5034108;28;20500;-74
2022/06/20 03:36:28;;;;;;;3.97;2.35;;;18.90;91.40;;;;;;5034537;28;20056;-74
2022/06/20 03:38:56;;;;;;;13.38;4.70;;;18.90;91.40;;;;;;5031918;28;20048;-74
2022/06/20 03:41:26;;;;;;;3.40;2.53;;;19.00;91.30;;;;;;5028813;28;20037;-74
2022/06/20 03:44:20;;;;;;;6.25;2.67;;;19.00;91.10;;;;;;5018329;28;20044;-74
2022/06/20 03:46:50;;;;;;;5.05;2.38;;;19.00;90.80;;;;;;5032450;28;20075;-73
2022/06/20 03:49:40;;;;;;;3.08;2.13;;;19.00;91.00;;;;;;5028034;28;20666;-74
2022/06/20 03:52:14;;;;;;;3.63;2.30;;;19.10;91.00;;;;;;5028925;28;20041;-73
2022/06/20 03:55:19;;;;;;;6.07;2.58;;;19.10;91.00;;;;;;5027195;28;20049;-74
2022/06/20 03:57:52;;;;;;;3.90;2.60;;;19.20;91.60;;;;;;5030899;28;20737;-73
2022/06/20 04:00:28;;;;;;;5.40;2.42;;;19.20;91.50;;;;;;5025840;28;20128;-74
2022/06/20 04:03:17;;;;;;;4.20;2.30;;;19.20;91.30;;;;;;5032197;28;20049;-74
2022/06/20 04:06:02;;;;;;;3.15;2.42;;;19.30;91.20;;;;;;5028815;28;20500;-74
2022/06/20 04:11:27;;;;;;;9.07;3.30;;;19.40;90.90;;;;;;5032909;28;20045;-74
2022/06/20 04:14:03;;;;;;;7.82;3.05;;;19.50;91.00;;;;;;5033320;28;20042;-74
2022/06/20 04:16:41;;;;;;;7.57;3.00;;;19.60;90.50;;;;;;5033409;28;20132;-74
2022/06/20 04:19:29;;;;;;;9.50;2.90;;;19.70;90.90;;;;;;5029881;28;20065;-74
2022/06/20 04:22:02;;;;;;;5.95;3.35;;;19.70;90.80;;;;;;5034099;28;20056;-74
2022/06/20 04:24:57;;;;;;;4.97;2.30;;;19.80;90.70;;;;;;5031234;28;20054;-74
2022/06/20 04:27:30;;;;;;;4.57;2.17;;;19.90;90.30;;;;;;5032835;28;20053;-74
2022/06/20 04:30:12;;;;;;;2.88;1.98;;;20.00;89.40;;;;;;5031421;28;20053;-74
2022/06/20 04:32:46;;;;;;;6.50;2.50;;;20.10;88.90;;;;;;5030383;28;20103;-73
2022/06/20 04:35:24;;;;;;;5.57;2.20;;;20.20;85.60;;;;;;5033418;28;20061;-73
2022/06/20 04:38:12;;;;;;;4.93;2.10;;;20.30;85.20;;;;;;5033220;28;20096;-74
2022/06/20 04:40:47;;;;;;;7.53;2.60;;;20.40;86.90;;;;;;5033284;28;20141;-74
2022/06/20 04:43:21;;;;;;;5.60;1.95;;;20.40;83.70;;;;;;5033864;28;20059;-74
2022/06/20 04:46:05;;;;;;;4.05;1.90;;;20.60;84.60;;;;;;5033424;28;20038;-74
2022/06/20 04:48:32;;;;;;;3.85;2.55;;;20.70;84.10;;;;;;5033008;28;20591;-74
2022/06/20 04:51:01;;;;;;;7.63;2.30;;;20.70;82.10;;;;;;5030790;28;20049;-75
2022/06/20 04:53:35;;;;;;;3.17;2.30;;;20.80;81.40;;;;;;5032238;28;20033;-74
2022/06/20 04:56:06;;;;;;;5.25;1.95;;;20.90;83.10;;;;;;5037527;28;20172;-75
2022/06/20 04:58:43;;;;;;;6.07;2.05;;;20.90;80.90;;;;;;5046621;28;20504;-74
2022/06/20 05:01:10;;;;;;;6.45;2.30;;;21.10;82.80;;;;;;5024406;28;20170;-73
2022/06/20 05:03:43;;;;;;;6.07;2.67;;;21.30;82.00;;;;;;4988843;28;20053;-74
2022/06/20 05:06:25;;;;;;;15.60;3.65;;;21.30;80.60;;;;;;4991306;28;20057;-73
2022/06/20 05:09:03;;;;;;;10.52;2.15;;;21.40;78.90;;;;;;4995729;28;20049;-74
2022/06/20 05:11:44;;;;;;;7.30;2.22;;;21.60;77.70;;;;;;4985991;28;20057;-74
2022/06/20 05:14:38;;;;;;;4.38;2.53;;;21.80;79.30;;;;;;4987953;28;20120;-74
2022/06/20 05:17:13;;;;;;;4.68;2.28;;;21.90;79.80;;;;;;4994309;28;20136;-74
2022/06/20 05:19:44;;;;;;;3.88;2.08;;;22.10;80.40;;;;;;5008252;28;20076;-74
2022/06/20 05:22:26;;;;;;;12.93;3.42;;;22.20;78.10;;;;;;4970504;28;20044;-74
2022/06/20 05:24:57;;;;;;;6.30;2.50;;;22.30;77.90;;;;;;4988635;28;20885;-74
2022/06/20 05:27:37;;;;;;;9.32;2.75;;;22.40;78.70;;;;;;4975503;28;20064;-74
2022/06/20 05:30:07;;;;;;;5.50;2.78;;;22.50;76.20;;;;;;4971214;28;20088;-74
2022/06/20 05:32:43;;;;;;;6.78;2.60;;;22.70;76.70;;;;;;5001956;28;20068;-74
2022/06/20 05:35:21;;;;;;;5.30;2.25;;;22.80;75.40;;;;;;4990470;28;20146;-74
2022/06/20 05:38:23;;;;;;;5.60;2.40;;;22.90;74.40;;;;;;4995614;28;20460;-74
2022/06/20 05:40:57;;;;;;;8.93;2.10;;;23.00;75.20;;;;;;4987802;28;20057;-74
2022/06/20 05:43:29;;;;;;;5.97;2.42;;;23.10;74.10;;;;;;4984875;28;20053;-74
2022/06/20 05:46:04;;;;;;;5.40;2.58;;;23.20;74.20;;;;;;5005191;28;20091;-74
2022/06/20 05:48:59;;;;;;;6.03;2.25;;;23.30;72.50;;;;;;4990219;28;20052;-75
2022/06/20 05:51:27;;;;;;;6.72;2.90;;;23.40;73.20;;;;;;4988407;28;20057;-75
2022/06/20 05:53:59;;;;;;;5.82;2.95;;;23.60;73.30;;;;;;4985313;28;20056;-75
2022/06/20 05:56:50;;;;;;;7.95;2.80;;;23.60;70.60;;;;;;4990840;28;20571;-75
2022/06/20 05:59:26;;;;;;;3.85;2.63;;;23.60;71.10;;;;;;4986031;28;20049;-75
2022/06/20 06:02:03;;;;;;;6.95;2.17;;;23.80;71.10;;;;;;4985673;28;20063;-75
2022/06/20 06:04:36;;;;;;;6.80;2.50;;;24.00;71.50;;;;;;4989284;28;20930;-76
2022/06/20 06:07:13;;;;;;;6.75;2.47;;;24.30;72.00;;;;;;4986309;28;20045;-75
2022/06/20 06:10:13;;;;;;;10.15;2.67;;;24.40;70.80;;;;;;4988282;28;20064;-76
2022/06/20 06:12:43;;;;;;;10.10;3.10;;;24.50;69.20;;;;;;4990206;28;20077;-76
2022/06/20 06:15:13;;;;;;;6.13;2.60;;;24.60;68.80;;;;;;4987386;28;20203;-76
2022/06/20 06:17:48;;;;;;;7.40;3.10;;;24.70;70.00;;;;;;4984799;28;20057;-75
2022/06/20 06:20:19;;;;;;;8.35;3.53;;;25.00;70.00;;;;;;4990751;28;20697;-76
2022/06/20 06:22:51;;;;;;;7.43;3.13;;;25.00;67.30;;;;;;4989186;28;20226;-75
2022/06/20 06:25:24;;;;;;;5.33;2.40;;;25.10;68.90;;;;;;4988957;28;20044;-76
2022/06/20 06:27:55;;;;;;;8.93;3.40;;;25.30;68.50;;;;;;4989703;28;22489;-76
2022/06/20 06:30:39;;;;;;;8.75;3.40;;;25.40;66.90;;;;;;4984188;28;20072;-76
2022/06/20 06:33:29;;;;;;;9.70;3.47;;;25.40;68.10;;;;;;4992775;28;20163;-76
2022/06/20 06:36:19;;;;;;;8.52;3.35;;;25.60;67.20;;;;;;4988799;28;20037;-76
2022/06/20 06:39:16;;;;;;;11.98;4.05;;;25.70;66.70;;;;;;5006388;28;20049;-76
2022/06/20 06:41:46;;;;;;;7.13;4.05;;;25.80;68.60;;;;;;4991127;28;22180;-76
2022/06/20 06:44:30;;;;;;;4.45;3.28;;;25.80;66.40;;;;;;4986782;28;20064;-76
2022/06/20 06:46:59;;;;;;;7.53;3.63;;;25.90;64.90;;;;;;4989705;28;20115;-76
2022/06/20 06:49:48;;;;;;;6.68;3.83;;;26.00;66.40;;;;;;4994857;28;20050;-76
2022/06/20 06:52:27;;;;;;;5.55;3.33;;;26.00;65.60;;;;;;4972369;28;20195;-75
2022/06/20 06:55:20;;;;;;;6.45;3.13;;;26.30;65.80;;;;;;4988731;28;20040;-76
2022/06/20 06:57:53;;;;;;;6.30;3.20;;;26.30;66.20;;;;;;5005542;28;20091;-76
2022/06/20 07:00:41;;;;;;;8.93;3.17;;;26.50;65.10;;;;;;4991697;28;20836;-76
2022/06/20 07:03:17;;;;;;;7.20;2.90;;;26.50;65.40;;;;;;4991797;28;20060;-76
2022/06/20 07:05:56;;;;;;;6.65;3.38;;;26.60;65.20;;;;;;4989856;28;20510;-76
2022/06/20 07:08:50;;;;;;;6.28;3.38;;;26.60;64.80;;;;;;4992468;28;20778;-75
2022/06/20 07:11:24;;;;;;;6.57;3.65;;;26.80;65.00;;;;;;4990752;28;20067;-76
2022/06/20 07:14:11;;;;;;;5.28;3.85;;;26.80;64.40;;;;;;4993885;28;20045;-75
2022/06/20 07:17:00;;;;;;;6.70;2.90;;;27.00;64.40;;;;;;4989501;28;20194;-75
2022/06/20 07:19:27;;;;;;;6.07;2.92;;;27.10;63.90;;;;;;4997470;28;20049;-75
2022/06/20 07:21:57;;;;;;;7.07;3.10;;;27.20;64.50;;;;;;4991249;28;20067;-76
2022/06/20 07:24:27;;;;;;;4.65;2.72;;;27.40;63.90;;;;;;4994500;28;20045;-76
2022/06/20 07:27:08;;;;;;;5.38;3.47;;;27.50;62.80;;;;;;4994723;28;20045;-76
2022/06/20 07:30:04;;;;;;;4.88;2.75;;;27.50;64.50;;;;;;4991551;28;20041;-76
2022/06/20 07:32:40;;;;;;;7.80;3.63;;;27.50;63.90;;;;;;4995073;28;20170;-76
2022/06/20 07:35:26;;;;;;;5.13;2.90;;;27.60;64.00;;;;;;4996841;28;20924;-76
2022/06/20 07:38:02;;;;;;;5.90;3.83;;;27.80;62.60;;;;;;5009034;28;20072;-75
2022/06/20 07:40:56;;;;;;;8.77;3.63;;;27.80;63.60;;;;;;4979154;28;20448;-76
2022/06/20 07:43:30;;;;;;;6.97;3.40;;;27.80;62.80;;;;;;4994914;28;20538;-77
2022/06/20 07:46:03;;;;;;;4.35;3.35;;;27.90;62.30;;;;;;4994742;28;20053;-75
2022/06/20 07:48:36;;;;;;;6.72;3.38;;;28.00;63.20;;;;;;4993233;28;20049;-76
2022/06/20 07:51:20;;;;;;;4.75;3.97;;;28.10;62.50;;;;;;4980353;28;20053;-76
2022/06/20 07:53:56;;;;;;;8.40;3.40;;;28.20;61.50;;;;;;4986454;28;20611;-76
2022/06/20 07:56:30;;;;;;;6.03;3.38;;;28.30;61.80;;;;;;4976106;28;20049;-76
2022/06/20 07:59:21;;;;;;;4.75;3.35;;;28.40;61.20;;;;;;4996835;28;20049;-76
2022/06/20 08:02:19;;;;;;;7.80;3.67;;;28.20;60.70;;;;;;5002882;28;20061;-76
2022/06/20 08:04:52;;;;;;;5.60;3.70;;;28.30;61.80;;;;;;4988613;28;20506;-76
2022/06/20 08:07:42;;;;;;;6.05;3.30;;;28.40;62.40;;;;;;4979120;28;22093;-76
2022/06/20 08:10:32;;;;;;;8.60;3.80;;;28.50;60.40;;;;;;4981590;28;20492;-76
2022/06/20 08:13:12;;;;;;;5.68;3.40;;;28.50;61.00;;;;;;5002977;28;20060;-76
2022/06/20 08:15:54;;;;;;;4.60;3.20;;;28.60;60.70;;;;;;4986469;28;20049;-76
2022/06/20 08:18:23;;;;;;;2.78;2.47;;;28.70;60.30;;;;;;4990143;28;20832;-78
2022/06/20 08:21:17;;;;;;;8.02;3.08;;;28.90;60.70;;;;;;5003762;28;20080;-76
2022/06/20 08:23:48;;;;;;;4.93;3.03;;;28.90;59.80;;;;;;4977038;28;20777;-76
2022/06/20 08:26:23;;;;;;;4.30;2.50;;;29.00;62.00;;;;;;4994495;28;20256;-76
2022/06/20 08:29:06;;;;;;;4.38;2.78;;;29.00;60.10;;;;;;5008601;28;20639;-76
2022/06/20 08:31:40;;;;;;;2.90;2.40;;;28.90;60.00;;;;;;4990993;28;20807;-76
2022/06/20 08:34:16;;;;;;;4.93;2.33;;;29.10;61.30;;;;;;4983405;28;21761;-76
2022/06/20 08:36:53;;;;;;;4.30;2.88;;;29.10;59.70;;;;;;4991148;28;20560;-76
2022/06/20 08:39:20;;;;;;;3.38;2.50;;;29.20;60.30;;;;;;4991243;28;20535;-76
2022/06/20 08:42:25;;;;;;;2.83;2.03;;;29.20;58.80;;;;;;4992023;28;20049;-76
2022/06/20 08:44:55;;;;;;;2.28;1.85;;;29.20;57.40;;;;;;4977058;28;20065;-76
2022/06/20 08:47:25;;;;;;;4.00;2.42;;;29.20;57.00;;;;;;4970677;28;20551;-76
2022/06/20 08:49:55;;;;;;;6.07;2.78;;;29.10;58.20;;;;;;4985731;28;20574;-76
2022/06/20 08:52:53;;;;;;;3.65;2.33;;;29.20;58.50;;;;;;4990878;28;20420;-76
2022/06/20 08:55:49;;;;;;;4.05;2.20;;;29.40;58.90;;;;;;5007755;28;20054;-77
2022/06/20 08:58:30;;;;;;;3.15;1.88;;;29.40;59.20;;;;;;4995523;28;20777;-77
2022/06/20 09:01:36;;;;;;;3.72;2.42;;;29.60;58.00;;;;;;4993020;28;20132;-76
2022/06/20 09:04:25;;;;;;;3.80;2.20;;;29.60;58.70;;;;;;4989972;28;20055;-76
2022/06/20 09:07:01;;;;;;;3.70;2.30;;;29.70;58.20;;;;;;4994897;28;20233;-76
2022/06/20 09:09:59;;;;;;;5.68;1.92;;;29.70;59.70;;;;;;4979276;28;20049;-77
2022/06/20 09:12:35;;;;;;;2.65;2.00;;;29.70;57.00;;;;;;4991501;28;20059;-76
2022/06/20 09:15:25;;;;;;;3.20;2.28;;;29.80;59.00;;;;;;4987925;28;22140;-77
2022/06/20 09:17:59;;;;;;;4.30;2.15;;;29.80;56.70;;;;;;5017565;28;20041;-77
2022/06/20 09:20:27;;;;;;;2.50;2.03;;;29.70;57.50;;;;;;5000545;28;20179;-76
2022/06/20 09:23:04;;;;;;;3.33;2.25;;;29.80;57.10;;;;;;5009250;28;20064;-76
2022/06/20 09:25:31;;;;;;;2.72;1.88;;;29.80;56.90;;;;;;5004595;28;20088;-76
2022/06/20 09:28:10;;;;;;;3.00;2.03;;;29.90;56.60;;;;;;4996792;28;21361;-76
2022/06/20 09:31:04;;;;;;;2.92;2.40;;;30.00;56.10;;;;;;4999038;28;20057;-75
2022/06/20 09:33:54;;;;;;;3.15;2.10;;;29.90;56.30;;;;;;5000140;28;20041;-76
2022/06/20 09:36:28;;;;;;;3.10;2.40;;;30.00;56.60;;;;;;5006132;28;20377;-76
2022/06/20 09:39:14;;;;;;;7.38;2.20;;;30.00;55.90;;;;;;5010570;28;20902;-76
2022/06/20 09:41:42;;;;;;;3.85;1.90;;;29.90;55.80;;;;;;5024310;28;20531;-76
2022/06/20 09:44:52;;;;;;;2.53;2.17;;;30.00;56.70;;;;;;5028720;28;20826;-76
2022/06/20 09:47:56;;;;;;;5.65;2.03;;;30.00;56.10;;;;;;5025751;28;20061;-75
2022/06/20 09:50:54;;;;;;;3.15;2.35;;;29.90;55.00;;;;;;5010298;28;20056;-75
2022/06/20 09:53:36;;;;;;;3.67;1.92;;;29.90;56.70;;;;;;5001864;28;20049;-75
2022/06/20 09:56:16;;;;;;;4.57;2.00;;;29.90;55.60;;;;;;4984226;28;20788;-76
2022/06/20 09:59:21;;;;;;;3.33;1.90;;;30.20;54.90;;;;;;4984270;28;20044;-74
2022/06/20 10:02:31;;;;;;;3.63;2.38;;;30.10;55.10;;;;;;4977452;28;20080;-75
2022/06/20 10:04:59;;;;;;;3.08;2.35;;;30.20;55.80;;;;;;4992051;28;20122;-76
2022/06/20 10:07:59;;;;;;;;;;;30.20;54.10;;;;;;5000406;28;20692;-77
2022/06/20 10:11:09;;;;;;;3.83;2.25;;;30.10;53.90;;;;;;4980629;28;19951;-76
2022/06/20 10:13:50;;;;;;;2.67;2.33;;;30.20;55.00;;;;;;4986266;28;20053;-77
2022/06/20 10:16:34;;;;;;;2.58;2.20;;;30.20;53.40;;;;;;4976765;28;20050;-77
2022/06/20 10:19:42;;;;;;;2.33;2.10;;;30.20;53.60;;;;;;4979770;28;20073;-76
2022/06/20 10:22:23;;;;;;;6.18;2.53;;;30.20;55.20;;;;;;4996792;28;20057;-77
2022/06/20 10:25:02;;;;;;;4.10;2.38;;;30.20;54.30;;;;;;5003947;28;20046;-78
2022/06/20 10:27:57;;;;;;;3.42;2.08;;;30.20;55.10;;;;;;5002863;28;20187;-76
2022/06/20 10:31:01;;;;;;;4.72;2.42;;;30.30;54.90;;;;;;4985668;28;20540;-75
2022/06/20 10:34:13;;;;;;;3.55;2.22;;;30.40;54.90;;;;;;4984431;28;20062;-74
2022/06/20 10:36:52;;;;;;;2.70;2.00;;;30.60;54.90;;;;;;4964958;28;20115;-74
2022/06/20 10:39:28;;;;;;;3.33;2.55;;;30.60;55.20;;;;;;4965552;28;20538;-75
2022/06/20 10:42:22;;;;;;;2.20;2.00;;;30.50;54.40;;;;;;4977581;28;20084;-75
2022/06/20 10:45:05;;;;;;;3.42;2.38;;;30.50;53.90;;;;;;4982399;28;21778;-76
2022/06/20 10:47:54;;;;;;;2.63;2.08;;;30.50;53.50;;;;;;4997741;28;20064;-77
2022/06/20 10:50:30;;;;;;;5.07;2.83;;;30.50;53.30;;;;;;4982972;28;21754;-75
2022/06/20 10:53:25;;;;;;;2.60;2.30;;;30.60;53.70;;;;;;4983510;28;20189;-75
2022/06/20 10:55:59;;;;;;;2.88;1.90;;;30.60;54.00;;;;;;4987391;28;20552;-75
2022/06/20 10:58:37;;;;;;;2.63;2.25;;;30.60;53.20;;;;;;4976737;28;20053;-75
2022/06/20 11:01:32;;;;;;;4.45;2.75;;;30.50;54.20;;;;;;4969586;28;20050;-77
2022/06/20 11:04:33;;;;;;;5.50;2.40;;;30.60;52.70;;;;;;4986751;28;20057;-75
2022/06/20 11:07:10;;;;;;;3.13;2.22;;;30.50;53.60;;;;;;4988227;28;20547;-75
2022/06/20 11:09:37;;;;;;;7.55;2.38;;;30.50;53.60;;;;;;5000305;28;20632;-76
2022/06/20 11:12:29;;;;;;;4.63;2.40;;;30.50;53.60;;;;;;4986184;28;21182;-75
2022/06/20 11:15:15;;;;;;;;;;;30.60;53.30;;;;;;4984754;28;20141;-75
2022/06/20 11:18:07;;;;;;;3.55;1.92;;;30.60;53.30;;;;;;4974711;28;20134;-75
2022/06/20 11:20:35;;;;;;;;;;;30.70;53.20;;;;;;5006261;28;20041;-76
2022/06/20 11:23:14;;;;;;;6.65;2.35;;;30.60;53.40;;;;;;4987584;28;20317;-76
2022/06/20 11:26:07;;;;;;;4.43;2.55;;;30.80;53.40;;;;;;4985912;28;20053;-76
2022/06/20 11:29:18;;;;;;;6.80;2.35;;;30.60;53.90;;;;;;4982161;28;20563;-75
2022/06/20 11:31:56;;;;;;;3.83;2.60;;;30.60;53.40;;;;;;4994332;28;20713;-75
2022/06/20 11:35:04;;;;;;;4.53;2.40;;;30.80;53.20;;;;;;5007113;28;20048;-76
2022/06/20 11:38:01;;;;;;;3.35;2.60;;;30.80;54.00;;;;;;4999205;28;20058;-76
2022/06/20 11:40:34;;;;;;;7.47;2.78;;;30.80;53.20;;;;;;4993372;28;20136;-76
2022/06/20 11:43:07;;;;;;;2.25;2.03;;;30.70;53.40;;;;;;4996694;28;20420;-76
2022/06/20 11:46:00;;;;;;;4.80;2.28;;;30.80;52.80;;;;;;5007753;28;20053;-75
2022/06/20 11:48:44;;;;;;;4.82;2.72;;;30.90;52.80;;;;;;4982614;28;20046;-79
2022/06/20 11:51:36;;;;;;;4.00;2.40;;;30.90;53.90;;;;;;4987405;28;20044;-76
2022/06/20 11:54:11;;;;;;;2.83;2.28;;;31.00;53.10;;;;;;4975082;28;20084;-75
2022/06/20 11:56:58;;;;;;;6.03;2.33;;;31.00;53.40;;;;;;4999960;28;20513;-76
2022/06/20 11:59:50;;;;;;;3.72;2.47;;;31.00;53.10;;;;;;4996852;28;20049;-76
2022/06/20 12:02:26;;;;;;;3.55;2.42;;;31.00;53.60;;;;;;5000902;28;20175;-76
2022/06/20 12:05:14;;;;;;;2.90;2.40;;;31.00;54.50;;;;;;5003790;28;24117;-77
2022/06/20 12:07:51;;;;;;;6.03;2.57;;;31.10;53.10;;;;;;5024554;28;20041;-75
2022/06/20 12:10:37;;;;;;;4.97;2.70;;;31.10;50.30;;;;;;5038558;28;20119;-75
2022/06/20 12:13:19;;;;;;;3.95;2.15;;;31.00;51.30;;;;;;5027596;28;20049;-76
2022/06/20 12:16:06;;;;;;;2.85;2.08;;;31.00;51.60;;;;;;5023993;28;20083;-75
2022/06/20 12:24:30;;;;;;;3.97;2.22;;;31.20;51.20;;;;;;5042250;28;22389;-78
2022/06/20 12:27:10;;;;;;;4.97;2.75;;;31.10;51.80;;;;;;5029979;28;20092;-76
2022/06/20 12:29:37;;;;;;;3.60;2.03;;;31.10;51.40;;;;;;5029019;28;20130;-76
2022/06/20 12:32:14;;;;;;;4.63;2.17;;;31.20;50.30;;;;;;5040059;28;20059;-76
2022/06/20 12:35:00;;;;;;;2.80;2.50;;;31.10;51.00;;;;;;5029429;28;20049;-77
2022/06/20 12:37:39;;;;;;;5.55;2.33;;;31.00;51.10;;;;;;5023149;28;22465;-75
2022/06/20 12:40:38;;;;;;;4.95;2.35;;;31.10;51.50;;;;;;5041395;28;20054;-76
2022/06/20 12:43:15;;;;;;;4.47;2.60;;;31.00;51.80;;;;;;5020895;28;20171;-76
2022/06/20 12:46:04;;;;;;;4.40;2.97;;;31.00;52.80;;;;;;5026792;28;20583;-77
2022/06/20 12:48:52;;;;;;;4.10;2.45;;;31.10;51.50;;;;;;5028743;28;20049;-77
2022/06/20 12:51:50;;;;;;;2.45;2.25;;;31.20;52.00;;;;;;5023989;28;20053;-76
2022/06/20 12:54:48;;;;;;;5.07;2.70;;;31.20;51.60;;;;;;5029050;28;20376;-76
2022/06/20 12:57:34;;;;;;;4.60;2.65;;;31.20;53.00;;;;;;5027095;28;20053;-76
2022/06/20 13:00:27;;;;;;;3.53;2.95;;;31.20;51.60;;;;;;5038690;28;20047;-76
2022/06/20 13:03:10;;;;;;;3.90;2.50;;;31.20;51.20;;;;;;5019534;28;21008;-76
2022/06/20 13:05:56;;;;;;;2.72;2.33;;;31.40;51.60;;;;;;5018102;28;20107;-75
2022/06/20 13:09:01;;;;;;;5.00;2.78;;;31.40;51.40;;;;;;5025526;28;24923;-75
2022/06/20 13:12:03;;;;;;;2.70;2.40;;;31.40;53.10;;;;;;5016130;28;20053;-76
2022/06/20 13:14:46;;;;;;;4.70;2.35;;;31.50;51.80;;;;;;5001721;28;20080;-75
2022/06/20 13:17:27;;;;;;;4.57;2.30;;;31.40;52.20;;;;;;5001860;28;20045;-76
2022/06/20 13:20:18;;;;;;;2.70;2.45;;;31.50;51.30;;;;;;4987925;28;20452;-75
2022/06/20 13:23:14;;;;;;;4.53;2.60;;;31.50;52.00;;;;;;5005728;28;20055;-75
2022/06/20 13:25:53;;;;;;;5.32;2.60;;;31.50;52.30;;;;;;5016718;28;20516;-77
2022/06/20 13:28:40;;;;;;;5.97;2.65;;;31.40;51.40;;;;;;5032904;28;20045;-76
2022/06/20 13:31:23;;;;;;;7.93;2.70;;;31.40;52.10;;;;;;5032372;28;20051;-75
2022/06/20 13:34:03;;;;;;;3.75;2.75;;;31.40;51.70;;;;;;5009862;28;20132;-75
2022/06/20 13:37:00;;;;;;;3.88;2.85;;;31.40;52.50;;;;;;5037524;28;20048;-75
2022/06/20 13:39:44;;;;;;;3.80;2.78;;;31.40;51.90;;;;;;5030268;28;20095;-75
2022/06/20 13:42:18;;;;;;;3.50;2.80;;;31.40;50.90;;;;;;5043018;28;20084;-75
2022/06/20 13:45:09;;;;;;;4.75;2.97;;;31.40;51.30;;;;;;5029107;28;20102;-75
2022/06/20 13:48:11;;;;;;;4.93;3.08;;;31.40;51.50;;;;;;5039638;28;20060;-75
2022/06/20 13:50:57;;;;;;;4.00;2.53;;;31.50;50.90;;;;;;5024967;28;20053;-75
2022/06/20 13:53:33;;;;;;;4.97;3.03;;;31.50;51.20;;;;;;5023640;28;20136;-75
2022/06/20 13:56:19;;;;;;;4.85;2.83;;;31.40;50.60;;;;;;5029544;28;20045;-76
2022/06/20 13:58:53;;;;;;;4.68;3.13;;;31.40;51.60;;;;;;5028021;28;20045;-75
2022/06/20 14:01:30;;;;;;;10.98;3.35;;;31.40;51.70;;;;;;5022330;28;20042;-75
2022/06/20 14:04:00;;;;;;;4.88;3.28;;;31.50;51.90;;;;;;5012543;28;20057;-76
2022/06/20 14:06:46;;;;;;;3.92;2.58;;;31.50;51.30;;;;;;5013222;28;20524;-75